sensor_id;sensor_type;location;lat;lon;timestamp;temperature;humidity
53204;DHT22;39086;54.424;18.456;2022-08-19T00:02:04;20.00;99.90
53204;DHT22;39086;54.424;18.456;2022-08-19T00:03:13;20.10;99.90
53204;DHT22;39086;54.424;18.456;2022-08-19T00:33:11;20.00;99.90
53204;DHT22;39086;54.424;18.456;2022-08-19T00:34:15;19.90;99.90
53204;DHT22;39086;54.424;18.456;2022-08-19T00:35:18;19.90;99.90
53204;DHT22;39086;54.424;18.456;2022-08-19T00:36:28;19.90;99.90
53204;DHT22;39086;54.424;18.456;2022-08-19T00:37:30;19.90;99.90
53204;DHT22;39086;54.424;18.456;2022-08-19T00:38:36;19.90;99.90
53204;DHT22;39086;54.424;18.456;2022-08-19T00:39:39;19.80;99.90
53204;DHT22;39086;54.424;18.456;2022-08-19T00:40:50;19.80;99.90
53204;DHT22;39086;54.424;18.456;2022-08-19T00:41:52;19.80;99.90
53204;DHT22;39086;54.424;18.456;2022-08-19T00:42:55;19.80;99.90
53204;DHT22;39086;54.424;18.456;2022-08-19T00:44:04;19.70;99.90
53204;DHT22;39086;54.424;18.456;2022-08-19T00:45:13;19.70;99.90
53204;DHT22;39086;54.424;18.456;2022-08-19T00:46:23;19.80;99.90
53204;DHT22;39086;54.424;18.456;2022-08-19T00:47:28;19.60;99.90
53204;DHT22;39086;54.424;18.456;2022-08-19T00:48:32;19.80;99.90
53204;DHT22;39086;54.424;18.456;2022-08-19T00:49:46;19.70;99.90
53204;DHT22;39086;54.424;18.456;2022-08-19T00:51:00;19.70;99.90
53204;DHT22;39086;54.424;18.456;2022-08-19T00:52:06;19.60;99.90
53204;DHT22;39086;54.424;18.456;2022-08-19T00:53:12;19.70;99.90
53204;DHT22;39086;54.424;18.456;2022-08-19T00:54:26;19.70;99.90
53204;DHT22;39086;54.424;18.456;2022-08-19T00:55:35;19.70;99.90
53204;DHT22;39086;54.424;18.456;2022-08-19T00:56:48;19.70;99.90
53204;DHT22;39086;54.424;18.456;2022-08-19T00:57:59;19.60;99.90
53204;DHT22;39086;54.424;18.456;2022-08-19T00:59:03;19.60;99.90
53204;DHT22;39086;54.424;18.456;2022-08-19T01:00:13;19.60;99.90
53204;DHT22;39086;54.424;18.456;2022-08-19T01:01:17;19.60;99.90
53204;DHT22;39086;54.424;18.456;2022-08-19T01:02:28;19.60;99.90
53204;DHT22;39086;54.424;18.456;2022-08-19T01:03:32;19.60;99.90
53204;DHT22;39086;54.424;18.456;2022-08-19T01:04:55;19.70;99.90
53204;DHT22;39086;54.424;18.456;2022-08-19T01:05:59;19.60;99.90
53204;DHT22;39086;54.424;18.456;2022-08-19T01:07:08;19.50;99.90
53204;DHT22;39086;54.424;18.456;2022-08-19T01:08:19;19.50;99.90
53204;DHT22;39086;54.424;18.456;2022-08-19T01:09:23;19.70;99.90
53204;DHT22;39086;54.424;18.456;2022-08-19T01:10:29;19.60;99.90
53204;DHT22;39086;54.424;18.456;2022-08-19T01:11:40;19.70;99.90
53204;DHT22;39086;54.424;18.456;2022-08-19T01:12:52;19.60;99.90
53204;DHT22;39086;54.424;18.456;2022-08-19T01:13:57;19.70;99.90
53204;DHT22;39086;54.424;18.456;2022-08-19T01:15:00;19.60;99.90
53204;DHT22;39086;54.424;18.456;2022-08-19T01:16:08;19.60;99.90
53204;DHT22;39086;54.424;18.456;2022-08-19T01:17:11;19.70;99.90
53204;DHT22;39086;54.424;18.456;2022-08-19T01:18:24;19.60;99.90
53204;DHT22;39086;54.424;18.456;2022-08-19T01:19:36;19.60;99.90
53204;DHT22;39086;54.424;18.456;2022-08-19T01:20:46;19.50;99.90
53204;DHT22;39086;54.424;18.456;2022-08-19T01:21:52;19.60;99.90
53204;DHT22;39086;54.424;18.456;2022-08-19T01:23:16;19.60;99.90
53204;DHT22;39086;54.424;18.456;2022-08-19T01:24:25;19.60;99.90
53204;DHT22;39086;54.424;18.456;2022-08-19T01:25:48;19.40;99.90
53204;DHT22;39086;54.424;18.456;2022-08-19T01:26:52;19.40;99.90
53204;DHT22;39086;54.424;18.456;2022-08-19T01:27:56;19.50;99.90
53204;DHT22;39086;54.424;18.456;2022-08-19T01:29:12;19.50;99.90
53204;DHT22;39086;54.424;18.456;2022-08-19T01:30:24;19.40;99.90
53204;DHT22;39086;54.424;18.456;2022-08-19T01:31:29;19.40;99.90
53204;DHT22;39086;54.424;18.456;2022-08-19T01:32:34;19.40;99.90
53204;DHT22;39086;54.424;18.456;2022-08-19T01:33:36;19.40;99.90
53204;DHT22;39086;54.424;18.456;2022-08-19T01:34:47;19.40;99.90
53204;DHT22;39086;54.424;18.456;2022-08-19T01:35:49;19.30;99.90
53204;DHT22;39086;54.424;18.456;2022-08-19T01:37:06;19.40;99.90
53204;DHT22;39086;54.424;18.456;2022-08-19T01:38:18;19.40;99.90
53204;DHT22;39086;54.424;18.456;2022-08-19T01:39:24;19.30;99.90
53204;DHT22;39086;54.424;18.456;2022-08-19T01:40:30;19.30;99.90
53204;DHT22;39086;54.424;18.456;2022-08-19T01:41:34;19.30;99.90
53204;DHT22;39086;54.424;18.456;2022-08-19T01:42:43;19.40;99.90
53204;DHT22;39086;54.424;18.456;2022-08-19T01:43:46;19.30;99.90
53204;DHT22;39086;54.424;18.456;2022-08-19T01:45:09;19.30;99.90
53204;DHT22;39086;54.424;18.456;2022-08-19T01:46:12;19.20;99.90
53204;DHT22;39086;54.424;18.456;2022-08-19T01:47:25;19.30;99.90
53204;DHT22;39086;54.424;18.456;2022-08-19T01:48:38;19.30;99.90
53204;DHT22;39086;54.424;18.456;2022-08-19T01:49:41;19.30;99.90
53204;DHT22;39086;54.424;18.456;2022-08-19T01:50:45;19.30;99.90
53204;DHT22;39086;54.424;18.456;2022-08-19T01:51:49;19.30;99.90
53204;DHT22;39086;54.424;18.456;2022-08-19T01:52:52;19.30;99.90
53204;DHT22;39086;54.424;18.456;2022-08-19T01:54:16;19.30;99.90
53204;DHT22;39086;54.424;18.456;2022-08-19T01:55:35;19.20;99.90
53204;DHT22;39086;54.424;18.456;2022-08-19T01:56:42;19.20;99.90
53204;DHT22;39086;54.424;18.456;2022-08-19T01:57:48;19.20;99.90
53204;DHT22;39086;54.424;18.456;2022-08-19T01:58:55;19.20;99.90
53204;DHT22;39086;54.424;18.456;2022-08-19T02:00:08;19.20;99.90
53204;DHT22;39086;54.424;18.456;2022-08-19T02:01:11;19.20;99.90
53204;DHT22;39086;54.424;18.456;2022-08-19T02:02:15;19.20;99.90
53204;DHT22;39086;54.424;18.456;2022-08-19T02:03:17;19.10;99.90
53204;DHT22;39086;54.424;18.456;2022-08-19T02:04:21;19.20;99.90
53204;DHT22;39086;54.424;18.456;2022-08-19T02:05:31;19.10;99.90
53204;DHT22;39086;54.424;18.456;2022-08-19T02:06:34;19.10;99.90
53204;DHT22;39086;54.424;18.456;2022-08-19T02:07:37;19.10;99.90
53204;DHT22;39086;54.424;18.456;2022-08-19T02:08:42;19.10;99.90
53204;DHT22;39086;54.424;18.456;2022-08-19T02:09:58;19.10;99.90
53204;DHT22;39086;54.424;18.456;2022-08-19T02:11:06;19.10;99.90
53204;DHT22;39086;54.424;18.456;2022-08-19T02:12:09;19.20;99.90
53204;DHT22;39086;54.424;18.456;2022-08-19T02:13:13;19.10;99.90
53204;DHT22;39086;54.424;18.456;2022-08-19T02:14:15;19.10;99.90
53204;DHT22;39086;54.424;18.456;2022-08-19T02:15:25;19.00;99.90
53204;DHT22;39086;54.424;18.456;2022-08-19T02:16:27;19.00;99.90
53204;DHT22;39086;54.424;18.456;2022-08-19T02:17:32;19.00;99.90
53204;DHT22;39086;54.424;18.456;2022-08-19T02:18:34;19.00;99.90
53204;DHT22;39086;54.424;18.456;2022-08-19T02:19:38;19.00;99.90
53204;DHT22;39086;54.424;18.456;2022-08-19T02:20:47;19.00;99.90
53204;DHT22;39086;54.424;18.456;2022-08-19T02:21:51;19.00;99.90
53204;DHT22;39086;54.424;18.456;2022-08-19T02:22:54;19.00;99.90
53204;DHT22;39086;54.424;18.456;2022-08-19T02:23:57;19.00;99.90
53204;DHT22;39086;54.424;18.456;2022-08-19T02:25:00;18.90;99.90
53204;DHT22;39086;54.424;18.456;2022-08-19T02:26:12;18.90;99.90
53204;DHT22;39086;54.424;18.456;2022-08-19T02:27:15;18.90;99.90
53204;DHT22;39086;54.424;18.456;2022-08-19T02:28:18;18.80;99.90
53204;DHT22;39086;54.424;18.456;2022-08-19T02:29:21;18.90;99.90
53204;DHT22;39086;54.424;18.456;2022-08-19T02:30:31;18.80;99.90
53204;DHT22;39086;54.424;18.456;2022-08-19T02:31:34;18.90;99.90
53204;DHT22;39086;54.424;18.456;2022-08-19T02:32:37;18.90;99.90
53204;DHT22;39086;54.424;18.456;2022-08-19T02:33:46;18.90;99.90
53204;DHT22;39086;54.424;18.456;2022-08-19T02:34:57;18.90;99.90
53204;DHT22;39086;54.424;18.456;2022-08-19T02:36:03;18.80;99.90
53204;DHT22;39086;54.424;18.456;2022-08-19T02:37:06;18.90;99.90
53204;DHT22;39086;54.424;18.456;2022-08-19T02:38:36;18.90;99.90
53204;DHT22;39086;54.424;18.456;2022-08-19T02:39:39;19.00;99.90
53204;DHT22;39086;54.424;18.456;2022-08-19T02:40:48;19.00;99.90
53204;DHT22;39086;54.424;18.456;2022-08-19T02:41:52;19.00;99.90
53204;DHT22;39086;54.424;18.456;2022-08-19T02:42:56;19.00;99.90
53204;DHT22;39086;54.424;18.456;2022-08-19T02:44:05;19.00;99.90
53204;DHT22;39086;54.424;18.456;2022-08-19T02:45:31;19.10;99.90
53204;DHT22;39086;54.424;18.456;2022-08-19T02:46:34;19.00;99.90
53204;DHT22;39086;54.424;18.456;2022-08-19T02:47:38;19.10;99.90
53204;DHT22;39086;54.424;18.456;2022-08-19T02:48:40;19.00;99.90
53204;DHT22;39086;54.424;18.456;2022-08-19T02:49:50;19.10;99.90
53204;DHT22;39086;54.424;18.456;2022-08-19T02:50:53;19.00;99.90
53204;DHT22;39086;54.424;18.456;2022-08-19T02:51:57;19.10;99.90
53204;DHT22;39086;54.424;18.456;2022-08-19T02:53:00;19.10;99.90
53204;DHT22;39086;54.424;18.456;2022-08-19T02:54:04;19.10;99.90
53204;DHT22;39086;54.424;18.456;2022-08-19T02:55:22;19.10;99.90
53204;DHT22;39086;54.424;18.456;2022-08-19T02:56:30;19.10;99.90
53204;DHT22;39086;54.424;18.456;2022-08-19T02:57:35;19.10;99.90
53204;DHT22;39086;54.424;18.456;2022-08-19T02:58:37;19.10;99.90
53204;DHT22;39086;54.424;18.456;2022-08-19T02:59:41;19.20;99.90
53204;DHT22;39086;54.424;18.456;2022-08-19T03:00:52;19.20;99.90
53204;DHT22;39086;54.424;18.456;2022-08-19T03:01:56;19.20;99.90
53204;DHT22;39086;54.424;18.456;2022-08-19T03:02:58;19.20;99.90
53204;DHT22;39086;54.424;18.456;2022-08-19T03:04:05;19.30;99.90
53204;DHT22;39086;54.424;18.456;2022-08-19T03:05:09;19.20;99.90
53204;DHT22;39086;54.424;18.456;2022-08-19T03:06:29;19.30;99.90
53204;DHT22;39086;54.424;18.456;2022-08-19T03:07:32;19.30;99.90
53204;DHT22;39086;54.424;18.456;2022-08-19T03:08:35;19.40;99.90
53204;DHT22;39086;54.424;18.456;2022-08-19T03:09:38;19.30;99.90
53204;DHT22;39086;54.424;18.456;2022-08-19T03:10:47;19.40;99.90
53204;DHT22;39086;54.424;18.456;2022-08-19T03:11:50;19.40;99.90
53204;DHT22;39086;54.424;18.456;2022-08-19T03:12:55;19.50;99.90
53204;DHT22;39086;54.424;18.456;2022-08-19T03:13:59;19.40;99.90
53204;DHT22;39086;54.424;18.456;2022-08-19T03:15:02;19.50;99.90
53204;DHT22;39086;54.424;18.456;2022-08-19T03:16:12;19.50;99.90
53204;DHT22;39086;54.424;18.456;2022-08-19T03:17:14;19.00;99.90
53204;DHT22;39086;54.424;18.456;2022-08-19T03:18:17;19.50;99.90
53204;DHT22;39086;54.424;18.456;2022-08-19T03:19:20;19.60;99.90
53204;DHT22;39086;54.424;18.456;2022-08-19T03:20:24;19.60;99.90
53204;DHT22;39086;54.424;18.456;2022-08-19T03:21:34;19.60;99.90
53204;DHT22;39086;54.424;18.456;2022-08-19T03:22:38;19.60;99.90
53204;DHT22;39086;54.424;18.456;2022-08-19T03:23:40;19.60;99.90
53204;DHT22;39086;54.424;18.456;2022-08-19T03:24:43;19.60;99.90
53204;DHT22;39086;54.424;18.456;2022-08-19T03:25:49;19.60;99.90
53204;DHT22;39086;54.424;18.456;2022-08-19T03:27:17;19.70;99.90
53204;DHT22;39086;54.424;18.456;2022-08-19T03:28:35;19.60;99.90
53204;DHT22;39086;54.424;18.456;2022-08-19T03:29:38;19.60;99.90
53204;DHT22;39086;54.424;18.456;2022-08-19T03:30:55;19.60;99.90
53204;DHT22;39086;54.424;18.456;2022-08-19T03:32:04;19.60;99.90
53204;DHT22;39086;54.424;18.456;2022-08-19T04:41:03;20.10;99.90
53204;DHT22;39086;54.424;18.456;2022-08-19T04:42:24;20.20;99.90
53204;DHT22;39086;54.424;18.456;2022-08-19T04:43:52;20.20;99.90
53204;DHT22;39086;54.424;18.456;2022-08-19T04:44:55;20.20;99.90
53204;DHT22;39086;54.424;18.456;2022-08-19T04:46:06;20.20;99.90
